sensor_id;sensor_type;location;lat;lon;timestamp;P1;durP1;ratioP1;P2;durP2;ratioP2
13477;SDS011;12598;62.382;17.344;2023-01-15T00:00:51;0.98;;;0.88;;
13477;SDS011;12598;62.382;17.344;2023-01-15T00:01:53;0.80;;;0.75;;
13477;SDS011;12598;62.382;17.344;2023-01-15T00:02:54;0.80;;;0.70;;
13477;SDS011;12598;62.382;17.344;2023-01-15T00:03:57;1.27;;;1.00;;
13477;SDS011;12598;62.382;17.344;2023-01-15T00:04:59;0.70;;;0.70;;
13477;SDS011;12598;62.382;17.344;2023-01-15T00:06:04;1.25;;;1.00;;
13477;SDS011;12598;62.382;17.344;2023-01-15T00:07:06;1.00;;;0.90;;
13477;SDS011;12598;62.382;17.344;2023-01-15T00:08:07;0.93;;;0.80;;
13477;SDS011;12598;62.382;17.344;2023-01-15T00:09:12;1.25;;;0.98;;
13477;SDS011;12598;62.382;17.344;2023-01-15T00:10:15;1.00;;;0.90;;
13477;SDS011;12598;62.382;17.344;2023-01-15T00:11:17;0.93;;;0.82;;
13477;SDS011;12598;62.382;17.344;2023-01-15T00:12:20;0.63;;;0.50;;
13477;SDS011;12598;62.382;17.344;2023-01-15T00:13:22;0.93;;;0.80;;
13477;SDS011;12598;62.382;17.344;2023-01-15T00:14:24;1.05;;;0.70;;
13477;SDS011;12598;62.382;17.344;2023-01-15T00:15:25;0.98;;;0.88;;
13477;SDS011;12598;62.382;17.344;2023-01-15T00:16:28;0.90;;;0.77;;
13477;SDS011;12598;62.382;17.344;2023-01-15T00:17:30;0.70;;;0.70;;
13477;SDS011;12598;62.382;17.344;2023-01-15T00:18:32;1.15;;;1.05;;
13477;SDS011;12598;62.382;17.344;2023-01-15T00:19:34;1.25;;;0.85;;
13477;SDS011;12598;62.382;17.344;2023-01-15T00:20:36;0.80;;;0.80;;
13477;SDS011;12598;62.382;17.344;2023-01-15T00:21:38;1.20;;;0.80;;
13477;SDS011;12598;62.382;17.344;2023-01-15T00:22:40;1.02;;;0.90;;
13477;SDS011;12598;62.382;17.344;2023-01-15T00:23:41;0.60;;;0.60;;
13477;SDS011;12598;62.382;17.344;2023-01-15T00:25:03;0.60;;;0.60;;
13477;SDS011;12598;62.382;17.344;2023-01-15T00:26:26;1.02;;;0.75;;
13477;SDS011;12598;62.382;17.344;2023-01-15T00:27:48;1.02;;;0.93;;
13477;SDS011;12598;62.382;17.344;2023-01-15T00:28:50;1.02;;;0.80;;
13477;SDS011;12598;62.382;17.344;2023-01-15T00:29:52;0.80;;;0.80;;
13477;SDS011;12598;62.382;17.344;2023-01-15T00:30:53;1.20;;;0.90;;
13477;SDS011;12598;62.382;17.344;2023-01-15T00:31:56;0.98;;;0.80;;
13477;SDS011;12598;62.382;17.344;2023-01-15T00:33:00;0.70;;;0.70;;
13477;SDS011;12598;62.382;17.344;2023-01-15T00:34:02;0.80;;;0.80;;
13477;SDS011;12598;62.382;17.344;2023-01-15T00:35:04;1.05;;;0.80;;
13477;SDS011;12598;62.382;17.344;2023-01-15T00:36:07;0.80;;;0.80;;
13477;SDS011;12598;62.382;17.344;2023-01-15T00:37:09;1.63;;;0.65;;
13477;SDS011;12598;62.382;17.344;2023-01-15T00:38:11;0.88;;;0.75;;
13477;SDS011;12598;62.382;17.344;2023-01-15T00:39:13;1.05;;;0.73;;
13477;SDS011;12598;62.382;17.344;2023-01-15T00:40:16;0.80;;;0.80;;
13477;SDS011;12598;62.382;17.344;2023-01-15T00:41:19;1.00;;;0.88;;
13477;SDS011;12598;62.382;17.344;2023-01-15T00:42:22;0.85;;;0.82;;
13477;SDS011;12598;62.382;17.344;2023-01-15T00:43:24;0.63;;;0.60;;
13477;SDS011;12598;62.382;17.344;2023-01-15T00:44:26;0.98;;;0.90;;
13477;SDS011;12598;62.382;17.344;2023-01-15T00:45:28;0.60;;;0.50;;
13477;SDS011;12598;62.382;17.344;2023-01-15T00:46:30;0.90;;;0.60;;
13477;SDS011;12598;62.382;17.344;2023-01-15T00:47:32;0.90;;;0.88;;
13477;SDS011;12598;62.382;17.344;2023-01-15T00:48:34;1.13;;;0.80;;
13477;SDS011;12598;62.382;17.344;2023-01-15T00:49:36;0.77;;;0.73;;
13477;SDS011;12598;62.382;17.344;2023-01-15T00:50:38;0.98;;;0.80;;
13477;SDS011;12598;62.382;17.344;2023-01-15T00:51:40;1.15;;;0.85;;
13477;SDS011;12598;62.382;17.344;2023-01-15T00:52:42;0.65;;;0.65;;
13477;SDS011;12598;62.382;17.344;2023-01-15T00:53:43;0.70;;;0.70;;
13477;SDS011;12598;62.382;17.344;2023-01-15T00:54:45;0.70;;;0.60;;
13477;SDS011;12598;62.382;17.344;2023-01-15T00:55:48;0.95;;;0.82;;
13477;SDS011;12598;62.382;17.344;2023-01-15T00:56:50;0.82;;;0.80;;
13477;SDS011;12598;62.382;17.344;2023-01-15T00:57:52;0.90;;;0.73;;
13477;SDS011;12598;62.382;17.344;2023-01-15T00:58:54;1.10;;;1.00;;
13477;SDS011;12598;62.382;17.344;2023-01-15T00:59:56;1.10;;;0.80;;
13477;SDS011;12598;62.382;17.344;2023-01-15T01:00:59;1.33;;;0.82;;
13477;SDS011;12598;62.382;17.344;2023-01-15T01:02:03;0.60;;;0.60;;
13477;SDS011;12598;62.382;17.344;2023-01-15T01:03:06;0.90;;;0.80;;
13477;SDS011;12598;62.382;17.344;2023-01-15T01:04:08;0.80;;;0.80;;
13477;SDS011;12598;62.382;17.344;2023-01-15T01:05:10;0.80;;;0.70;;
13477;SDS011;12598;62.382;17.344;2023-01-15T01:06:12;1.10;;;0.77;;
13477;SDS011;12598;62.382;17.344;2023-01-15T01:07:14;0.80;;;0.60;;
13477;SDS011;12598;62.382;17.344;2023-01-15T01:08:16;0.82;;;0.70;;
13477;SDS011;12598;62.382;17.344;2023-01-15T01:09:18;0.60;;;0.50;;
13477;SDS011;12598;62.382;17.344;2023-01-15T01:10:20;0.85;;;0.65;;
13477;SDS011;12598;62.382;17.344;2023-01-15T01:11:23;0.85;;;0.85;;
13477;SDS011;12598;62.382;17.344;2023-01-15T01:12:27;0.80;;;0.80;;
13477;SDS011;12598;62.382;17.344;2023-01-15T01:13:29;0.60;;;0.60;;
13477;SDS011;12598;62.382;17.344;2023-01-15T01:14:31;0.95;;;0.85;;
13477;SDS011;12598;62.382;17.344;2023-01-15T01:15:33;0.55;;;0.50;;
13477;SDS011;12598;62.382;17.344;2023-01-15T01:16:37;1.10;;;1.00;;
13477;SDS011;12598;62.382;17.344;2023-01-15T01:17:40;0.90;;;0.70;;
13477;SDS011;12598;62.382;17.344;2023-01-15T01:18:42;0.82;;;0.60;;
13477;SDS011;12598;62.382;17.344;2023-01-15T01:19:44;1.00;;;0.90;;
13477;SDS011;12598;62.382;17.344;2023-01-15T01:20:46;1.15;;;0.70;;
13477;SDS011;12598;62.382;17.344;2023-01-15T01:21:48;1.05;;;0.95;;
13477;SDS011;12598;62.382;17.344;2023-01-15T01:22:51;0.88;;;0.70;;
13477;SDS011;12598;62.382;17.344;2023-01-15T01:23:53;0.82;;;0.65;;
13477;SDS011;12598;62.382;17.344;2023-01-15T01:24:58;0.75;;;0.68;;
13477;SDS011;12598;62.382;17.344;2023-01-15T01:26:00;1.00;;;0.82;;
13477;SDS011;12598;62.382;17.344;2023-01-15T01:27:01;0.75;;;0.75;;
13477;SDS011;12598;62.382;17.344;2023-01-15T01:28:03;0.98;;;0.77;;
13477;SDS011;12598;62.382;17.344;2023-01-15T01:29:05;0.80;;;0.80;;
13477;SDS011;12598;62.382;17.344;2023-01-15T01:30:07;0.82;;;0.80;;
13477;SDS011;12598;62.382;17.344;2023-01-15T01:31:10;0.88;;;0.68;;
13477;SDS011;12598;62.382;17.344;2023-01-15T01:32:12;0.80;;;0.60;;
13477;SDS011;12598;62.382;17.344;2023-01-15T01:33:14;1.30;;;1.00;;
13477;SDS011;12598;62.382;17.344;2023-01-15T01:34:16;1.25;;;0.50;;
13477;SDS011;12598;62.382;17.344;2023-01-15T01:35:18;0.60;;;0.60;;
13477;SDS011;12598;62.382;17.344;2023-01-15T01:36:25;0.80;;;0.77;;
13477;SDS011;12598;62.382;17.344;2023-01-15T01:37:35;0.68;;;0.52;;
13477;SDS011;12598;62.382;17.344;2023-01-15T01:38:37;1.38;;;0.70;;
13477;SDS011;12598;62.382;17.344;2023-01-15T01:39:39;0.68;;;0.60;;
13477;SDS011;12598;62.382;17.344;2023-01-15T01:40:41;0.98;;;0.80;;
13477;SDS011;12598;62.382;17.344;2023-01-15T01:41:43;1.15;;;0.77;;
13477;SDS011;12598;62.382;17.344;2023-01-15T01:42:46;1.08;;;0.60;;
13477;SDS011;12598;62.382;17.344;2023-01-15T01:45:03;0.85;;;0.60;;
13477;SDS011;12598;62.382;17.344;2023-01-15T01:46:08;0.95;;;0.85;;
13477;SDS011;12598;62.382;17.344;2023-01-15T01:47:12;1.00;;;0.90;;
13477;SDS011;12598;62.382;17.344;2023-01-15T01:48:20;0.75;;;0.75;;
13477;SDS011;12598;62.382;17.344;2023-01-15T01:49:27;0.80;;;0.65;;
13477;SDS011;12598;62.382;17.344;2023-01-15T01:50:30;1.17;;;0.68;;
13477;SDS011;12598;62.382;17.344;2023-01-15T01:51:35;0.93;;;0.52;;
13477;SDS011;12598;62.382;17.344;2023-01-15T01:53:02;0.65;;;0.50;;
13477;SDS011;12598;62.382;17.344;2023-01-15T01:54:07;1.08;;;0.85;;
13477;SDS011;12598;62.382;17.344;2023-01-15T01:55:12;0.73;;;0.50;;
13477;SDS011;12598;62.382;17.344;2023-01-15T01:56:17;0.73;;;0.73;;
13477;SDS011;12598;62.382;17.344;2023-01-15T01:57:19;1.02;;;0.63;;
13477;SDS011;12598;62.382;17.344;2023-01-15T01:58:23;0.43;;;0.40;;
13477;SDS011;12598;62.382;17.344;2023-01-15T01:59:32;0.85;;;0.60;;
13477;SDS011;12598;62.382;17.344;2023-01-15T02:00:34;0.70;;;0.60;;
13477;SDS011;12598;62.382;17.344;2023-01-15T02:01:39;0.90;;;0.60;;
13477;SDS011;12598;62.382;17.344;2023-01-15T02:02:42;1.10;;;0.65;;
13477;SDS011;12598;62.382;17.344;2023-01-15T02:03:45;1.65;;;0.93;;
13477;SDS011;12598;62.382;17.344;2023-01-15T02:04:48;0.88;;;0.85;;
13477;SDS011;12598;62.382;17.344;2023-01-15T02:05:53;0.93;;;0.70;;
13477;SDS011;12598;62.382;17.344;2023-01-15T02:07:00;0.90;;;0.70;;
13477;SDS011;12598;62.382;17.344;2023-01-15T02:08:04;0.50;;;0.40;;
13477;SDS011;12598;62.382;17.344;2023-01-15T02:09:07;0.93;;;0.70;;
13477;SDS011;12598;62.382;17.344;2023-01-15T02:10:13;0.60;;;0.55;;
13477;SDS011;12598;62.382;17.344;2023-01-15T02:11:18;1.45;;;0.50;;
13477;SDS011;12598;62.382;17.344;2023-01-15T02:12:24;1.00;;;0.80;;
13477;SDS011;12598;62.382;17.344;2023-01-15T02:13:34;0.88;;;0.73;;
13477;SDS011;12598;62.382;17.344;2023-01-15T02:16:00;1.40;;;0.80;;
13477;SDS011;12598;62.382;17.344;2023-01-15T02:18:53;1.05;;;0.70;;
13477;SDS011;12598;62.382;17.344;2023-01-15T02:29:41;1.15;;;0.60;;
13477;SDS011;12598;62.382;17.344;2023-01-15T02:30:56;0.90;;;0.50;;
13477;SDS011;12598;62.382;17.344;2023-01-15T02:32:14;1.33;;;0.75;;
13477;SDS011;12598;62.382;17.344;2023-01-15T02:33:22;0.90;;;0.70;;
13477;SDS011;12598;62.382;17.344;2023-01-15T02:34:33;1.20;;;0.80;;
13477;SDS011;12598;62.382;17.344;2023-01-15T02:35:44;1.42;;;0.90;;
13477;SDS011;12598;62.382;17.344;2023-01-15T02:37:00;1.80;;;0.60;;
13477;SDS011;12598;62.382;17.344;2023-01-15T02:38:08;0.68;;;0.63;;
13477;SDS011;12598;62.382;17.344;2023-01-15T02:39:14;1.13;;;0.70;;
13477;SDS011;12598;62.382;17.344;2023-01-15T02:40:18;0.73;;;0.65;;
13477;SDS011;12598;62.382;17.344;2023-01-15T02:41:27;1.17;;;0.65;;
13477;SDS011;12598;62.382;17.344;2023-01-15T02:42:34;0.90;;;0.82;;
13477;SDS011;12598;62.382;17.344;2023-01-15T02:43:38;0.80;;;0.70;;
13477;SDS011;12598;62.382;17.344;2023-01-15T02:44:43;1.00;;;0.75;;
13477;SDS011;12598;62.382;17.344;2023-01-15T02:45:50;0.50;;;0.43;;
13477;SDS011;12598;62.382;17.344;2023-01-15T02:46:54;0.65;;;0.60;;
13477;SDS011;12598;62.382;17.344;2023-01-15T02:48:01;0.60;;;0.50;;
13477;SDS011;12598;62.382;17.344;2023-01-15T02:49:09;0.70;;;0.60;;
13477;SDS011;12598;62.382;17.344;2023-01-15T02:50:18;0.60;;;0.50;;
13477;SDS011;12598;62.382;17.344;2023-01-15T02:51:24;0.60;;;0.60;;
13477;SDS011;12598;62.382;17.344;2023-01-15T02:52:33;0.98;;;0.70;;
13477;SDS011;12598;62.382;17.344;2023-01-15T02:53:40;1.48;;;0.60;;
13477;SDS011;12598;62.382;17.344;2023-01-15T02:54:47;0.80;;;0.40;;
13477;SDS011;12598;62.382;17.344;2023-01-15T02:55:55;1.05;;;0.55;;
13477;SDS011;12598;62.382;17.344;2023-01-15T02:57:04;1.02;;;0.60;;
13477;SDS011;12598;62.382;17.344;2023-01-15T02:58:08;0.90;;;0.60;;
13477;SDS011;12598;62.382;17.344;2023-01-15T02:59:20;0.80;;;0.80;;
13477;SDS011;12598;62.382;17.344;2023-01-15T03:00:25;0.70;;;0.70;;
13477;SDS011;12598;62.382;17.344;2023-01-15T03:01:40;0.85;;;0.50;;
13477;SDS011;12598;62.382;17.344;2023-01-15T03:02:57;0.80;;;0.70;;
13477;SDS011;12598;62.382;17.344;2023-01-15T03:04:09;0.70;;;0.63;;
13477;SDS011;12598;62.382;17.344;2023-01-15T03:05:39;0.70;;;0.60;;
13477;SDS011;12598;62.382;17.344;2023-01-15T03:08:11;0.57;;;0.50;;
13477;SDS011;12598;62.382;17.344;2023-01-15T03:09:13;0.60;;;0.50;;
13477;SDS011;12598;62.382;17.344;2023-01-15T03:10:17;0.70;;;0.68;;
13477;SDS011;12598;62.382;17.344;2023-01-15T03:11:20;0.65;;;0.55;;
13477;SDS011;12598;62.382;17.344;2023-01-15T03:12:43;0.60;;;0.50;;
13477;SDS011;12598;62.382;17.344;2023-01-15T03:14:21;0.63;;;0.55;;
13477;SDS011;12598;62.382;17.344;2023-01-15T03:18:54;0.85;;;0.60;;
13477;SDS011;12598;62.382;17.344;2023-01-15T03:21:16;0.70;;;0.40;;
13477;SDS011;12598;62.382;17.344;2023-01-15T03:22:36;1.05;;;0.70;;
13477;SDS011;12598;62.382;17.344;2023-01-15T03:23:46;0.77;;;0.65;;
13477;SDS011;12598;62.382;17.344;2023-01-15T03:24:53;0.85;;;0.50;;
13477;SDS011;12598;62.382;17.344;2023-01-15T03:25:57;0.82;;;0.70;;
13477;SDS011;12598;62.382;17.344;2023-01-15T03:27:02;0.50;;;0.47;;
13477;SDS011;12598;62.382;17.344;2023-01-15T03:28:04;1.00;;;0.68;;
13477;SDS011;12598;62.382;17.344;2023-01-15T03:29:07;1.88;;;0.70;;
13477;SDS011;12598;62.382;17.344;2023-01-15T03:30:16;0.60;;;0.57;;
13477;SDS011;12598;62.382;17.344;2023-01-15T03:31:22;1.20;;;0.50;;
13477;SDS011;12598;62.382;17.344;2023-01-15T03:32:24;0.65;;;0.50;;
13477;SDS011;12598;62.382;17.344;2023-01-15T03:33:27;0.52;;;0.38;;
13477;SDS011;12598;62.382;17.344;2023-01-15T03:34:33;1.00;;;0.50;;
13477;SDS011;12598;62.382;17.344;2023-01-15T03:35:48;1.00;;;0.70;;
13477;SDS011;12598;62.382;17.344;2023-01-15T03:37:16;0.63;;;0.57;;
13477;SDS011;12598;62.382;17.344;2023-01-15T03:38:20;0.75;;;0.40;;
13477;SDS011;12598;62.382;17.344;2023-01-15T03:39:27;0.70;;;0.45;;
13477;SDS011;12598;62.382;17.344;2023-01-15T03:40:52;0.70;;;0.52;;
13477;SDS011;12598;62.382;17.344;2023-01-15T03:43:50;0.85;;;0.52;;
13477;SDS011;12598;62.382;17.344;2023-01-15T03:45:14;0.55;;;0.50;;
13477;SDS011;12598;62.382;17.344;2023-01-15T03:50:30;0.25;;;0.25;;
13477;SDS011;12598;62.382;17.344;2023-01-15T03:51:39;0.43;;;0.40;;
13477;SDS011;12598;62.382;17.344;2023-01-15T03:53:56;0.90;;;0.45;;
13477;SDS011;12598;62.382;17.344;2023-01-15T03:56:35;0.30;;;0.30;;
13477;SDS011;12598;62.382;17.344;2023-01-15T03:58:05;0.47;;;0.30;;
13477;SDS011;12598;62.382;17.344;2023-01-15T03:59:17;0.28;;;0.28;;
13477;SDS011;12598;62.382;17.344;2023-01-15T04:00:35;0.30;;;0.30;;
13477;SDS011;12598;62.382;17.344;2023-01-15T04:01:44;0.55;;;0.40;;
13477;SDS011;12598;62.382;17.344;2023-01-15T04:02:47;0.50;;;0.38;;
13477;SDS011;12598;62.382;17.344;2023-01-15T04:03:51;0.20;;;0.20;;
13477;SDS011;12598;62.382;17.344;2023-01-15T04:04:58;0.30;;;0.22;;
13477;SDS011;12598;62.382;17.344;2023-01-15T04:06:03;0.30;;;0.30;;
13477;SDS011;12598;62.382;17.344;2023-01-15T04:07:08;0.75;;;0.22;;
13477;SDS011;12598;62.382;17.344;2023-01-15T04:08:10;0.30;;;0.28;;
13477;SDS011;12598;62.382;17.344;2023-01-15T04:09:15;0.22;;;0.20;;
13477;SDS011;12598;62.382;17.344;2023-01-15T04:10:18;0.40;;;0.20;;
13477;SDS011;12598;62.382;17.344;2023-01-15T04:11:22;0.20;;;0.20;;
13477;SDS011;12598;62.382;17.344;2023-01-15T04:12:30;0.20;;;0.20;;
13477;SDS011;12598;62.382;17.344;2023-01-15T04:13:35;0.45;;;0.20;;
13477;SDS011;12598;62.382;17.344;2023-01-15T04:14:37;0.22;;;0.20;;
13477;SDS011;12598;62.382;17.344;2023-01-15T04:15:42;0.38;;;0.28;;
13477;SDS011;12598;62.382;17.344;2023-01-15T04:16:44;0.20;;;0.17;;
13477;SDS011;12598;62.382;17.344;2023-01-15T04:17:46;0.20;;;0.20;;
13477;SDS011;12598;62.382;17.344;2023-01-15T04:18:49;0.28;;;0.20;;
13477;SDS011;12598;62.382;17.344;2023-01-15T04:19:52;0.15;;;0.15;;
13477;SDS011;12598;62.382;17.344;2023-01-15T04:20:53;0.13;;;0.10;;
13477;SDS011;12598;62.382;17.344;2023-01-15T04:21:56;0.20;;;0.20;;
13477;SDS011;12598;62.382;17.344;2023-01-15T04:22:58;0.20;;;0.20;;
13477;SDS011;12598;62.382;17.344;2023-01-15T04:24:00;0.10;;;0.10;;
13477;SDS011;12598;62.382;17.344;2023-01-15T04:25:02;0.25;;;0.20;;
13477;SDS011;12598;62.382;17.344;2023-01-15T04:26:06;0.32;;;0.20;;
13477;SDS011;12598;62.382;17.344;2023-01-15T04:27:08;0.55;;;0.30;;
13477;SDS011;12598;62.382;17.344;2023-01-15T04:28:10;0.10;;;0.10;;
13477;SDS011;12598;62.382;17.344;2023-01-15T04:29:13;0.20;;;0.10;;
13477;SDS011;12598;62.382;17.344;2023-01-15T04:30:15;0.20;;;0.20;;
13477;SDS011;12598;62.382;17.344;2023-01-15T04:31:17;0.20;;;0.20;;
13477;SDS011;12598;62.382;17.344;2023-01-15T04:32:20;0.30;;;0.15;;
13477;SDS011;12598;62.382;17.344;2023-01-15T04:33:22;0.20;;;0.20;;
13477;SDS011;12598;62.382;17.344;2023-01-15T04:34:24;0.43;;;0.22;;
13477;SDS011;12598;62.382;17.344;2023-01-15T04:35:28;0.30;;;0.20;;
13477;SDS011;12598;62.382;17.344;2023-01-15T04:36:29;0.55;;;0.20;;
13477;SDS011;12598;62.382;17.344;2023-01-15T04:37:31;0.30;;;0.17;;
13477;SDS011;12598;62.382;17.344;2023-01-15T04:38:33;0.20;;;0.10;;
13477;SDS011;12598;62.382;17.344;2023-01-15T04:39:38;0.30;;;0.20;;
13477;SDS011;12598;62.382;17.344;2023-01-15T04:40:40;0.20;;;0.20;;
13477;SDS011;12598;62.382;17.344;2023-01-15T04:42:00;0.20;;;0.20;;
13477;SDS011;12598;62.382;17.344;2023-01-15T04:43:20;0.10;;;0.10;;
13477;SDS011;12598;62.382;17.344;2023-01-15T04:44:40;0.30;;;0.20;;
13477;SDS011;12598;62.382;17.344;2023-01-15T04:45:43;0.17;;;0.17;;
13477;SDS011;12598;62.382;17.344;2023-01-15T04:46:45;0.22;;;0.22;;
13477;SDS011;12598;62.382;17.344;2023-01-15T04:47:49;0.13;;;0.10;;
13477;SDS011;12598;62.382;17.344;2023-01-15T04:48:51;0.15;;;0.15;;
13477;SDS011;12598;62.382;17.344;2023-01-15T04:49:53;0.10;;;0.10;;
13477;SDS011;12598;62.382;17.344;2023-01-15T04:50:54;0.20;;;0.13;;
13477;SDS011;12598;62.382;17.344;2023-01-15T04:51:56;0.10;;;0.10;;
13477;SDS011;12598;62.382;17.344;2023-01-15T04:52:58;0.22;;;0.17;;
13477;SDS011;12598;62.382;17.344;2023-01-15T04:54:03;0.20;;;0.17;;
13477;SDS011;12598;62.382;17.344;2023-01-15T04:55:06;0.20;;;0.15;;
13477;SDS011;12598;62.382;17.344;2023-01-15T04:56:08;0.20;;;0.15;;
13477;SDS011;12598;62.382;17.344;2023-01-15T04:57:10;0.20;;;0.20;;
13477;SDS011;12598;62.382;17.344;2023-01-15T04:58:12;0.88;;;0.20;;
13477;SDS011;12598;62.382;17.344;2023-01-15T04:59:14;0.43;;;0.20;;
13477;SDS011;12598;62.382;17.344;2023-01-15T05:00:17;0.70;;;0.20;;
13477;SDS011;12598;62.382;17.344;2023-01-15T05:01:19;0.10;;;0.10;;
13477;SDS011;12598;62.382;17.344;2023-01-15T05:02:21;0.17;;;0.17;;
13477;SDS011;12598;62.382;17.344;2023-01-15T05:03:23;0.20;;;0.10;;
13477;SDS011;12598;62.382;17.344;2023-01-15T05:04:25;0.20;;;0.10;;
13477;SDS011;12598;62.382;17.344;2023-01-15T05:05:27;0.25;;;0.13;;
13477;SDS011;12598;62.382;17.344;2023-01-15T05:06:29;0.10;;;0.10;;
13477;SDS011;12598;62.382;17.344;2023-01-15T05:07:31;0.10;;;0.10;;
13477;SDS011;12598;62.382;17.344;2023-01-15T05:08:33;0.70;;;0.30;;
13477;SDS011;12598;62.382;17.344;2023-01-15T05:09:35;0.47;;;0.30;;
13477;SDS011;12598;62.382;17.344;2023-01-15T05:10:37;0.20;;;0.20;;
13477;SDS011;12598;62.382;17.344;2023-01-15T05:11:39;0.20;;;0.10;;
13477;SDS011;12598;62.382;17.344;2023-01-15T05:12:41;0.40;;;0.20;;
13477;SDS011;12598;62.382;17.344;2023-01-15T05:13:43;0.10;;;0.10;;
13477;SDS011;12598;62.382;17.344;2023-01-15T05:14:45;0.10;;;0.10;;
13477;SDS011;12598;62.382;17.344;2023-01-15T05:15:47;0.20;;;0.10;;
13477;SDS011;12598;62.382;17.344;2023-01-15T05:16:49;0.88;;;0.10;;
13477;SDS011;12598;62.382;17.344;2023-01-15T05:17:51;0.10;;;0.10;;
13477;SDS011;12598;62.382;17.344;2023-01-15T05:18:53;0.10;;;0.10;;
13477;SDS011;12598;62.382;17.344;2023-01-15T05:19:58;0.10;;;0.10;;
13477;SDS011;12598;62.382;17.344;2023-01-15T05:21:00;0.20;;;0.20;;
13477;SDS011;12598;62.382;17.344;2023-01-15T05:22:02;0.47;;;0.15;;
13477;SDS011;12598;62.382;17.344;2023-01-15T05:23:04;0.20;;;0.10;;
13477;SDS011;12598;62.382;17.344;2023-01-15T05:24:06;0.10;;;0.10;;
13477;SDS011;12598;62.382;17.344;2023-01-15T05:25:13;0.30;;;0.20;;
13477;SDS011;12598;62.382;17.344;2023-01-15T05:26:15;0.10;;;0.10;;
13477;SDS011;12598;62.382;17.344;2023-01-15T05:27:17;0.73;;;0.20;;
13477;SDS011;12598;62.382;17.344;2023-01-15T05:28:19;0.15;;;0.10;;
13477;SDS011;12598;62.382;17.344;2023-01-15T05:29:21;0.25;;;0.17;;
13477;SDS011;12598;62.382;17.344;2023-01-15T05:30:23;0.30;;;0.22;;
13477;SDS011;12598;62.382;17.344;2023-01-15T05:31:25;0.10;;;0.10;;
13477;SDS011;12598;62.382;17.344;2023-01-15T05:32:28;0.20;;;0.20;;
13477;SDS011;12598;62.382;17.344;2023-01-15T05:33:30;0.10;;;0.10;;
13477;SDS011;12598;62.382;17.344;2023-01-15T05:34:32;0.20;;;0.10;;
13477;SDS011;12598;62.382;17.344;2023-01-15T05:35:34;0.30;;;0.10;;
13477;SDS011;12598;62.382;17.344;2023-01-15T05:36:36;0.30;;;0.20;;
13477;SDS011;12598;62.382;17.344;2023-01-15T05:37:38;0.45;;;0.15;;
13477;SDS011;12598;62.382;17.344;2023-01-15T05:38:40;0.70;;;0.20;;
13477;SDS011;12598;62.382;17.344;2023-01-15T05:39:42;0.20;;;0.10;;
13477;SDS011;12598;62.382;17.344;2023-01-15T05:40:44;0.10;;;0.10;;
13477;SDS011;12598;62.382;17.344;2023-01-15T05:41:46;0.10;;;0.10;;
13477;SDS011;12598;62.382;17.344;2023-01-15T05:42:52;0.20;;;0.10;;
13477;SDS011;12598;62.382;17.344;2023-01-15T05:43:54;0.15;;;0.15;;
13477;SDS011;12598;62.382;17.344;2023-01-15T05:44:57;0.10;;;0.10;;
13477;SDS011;12598;62.382;17.344;2023-01-15T05:46:00;0.20;;;0.20;;
13477;SDS011;12598;62.382;17.344;2023-01-15T05:47:02;0.22;;;0.20;;
13477;SDS011;12598;62.382;17.344;2023-01-15T05:48:07;0.20;;;0.20;;
13477;SDS011;12598;62.382;17.344;2023-01-15T05:49:10;0.10;;;0.10;;
13477;SDS011;12598;62.382;17.344;2023-01-15T05:50:14;0.20;;;0.10;;
13477;SDS011;12598;62.382;17.344;2023-01-15T05:51:16;0.10;;;0.10;;
13477;SDS011;12598;62.382;17.344;2023-01-15T05:52:18;0.47;;;0.20;;
13477;SDS011;12598;62.382;17.344;2023-01-15T05:53:20;0.10;;;0.10;;
13477;SDS011;12598;62.382;17.344;2023-01-15T05:54:23;0.10;;;0.10;;
13477;SDS011;12598;62.382;17.344;2023-01-15T05:55:26;0.10;;;0.10;;
13477;SDS011;12598;62.382;17.344;2023-01-15T05:56:28;0.22;;;0.10;;
13477;SDS011;12598;62.382;17.344;2023-01-15T05:57:30;0.20;;;0.20;;
13477;SDS011;12598;62.382;17.344;2023-01-15T05:58:33;0.20;;;0.20;;
13477;SDS011;12598;62.382;17.344;2023-01-15T05:59:35;0.10;;;0.10;;
13477;SDS011;12598;62.382;17.344;2023-01-15T06:00:37;0.10;;;0.10;;
13477;SDS011;12598;62.382;17.344;2023-01-15T06:01:39;0.10;;;0.10;;
13477;SDS011;12598;62.382;17.344;2023-01-15T06:02:41;0.10;;;0.10;;
13477;SDS011;12598;62.382;17.344;2023-01-15T06:03:43;0.20;;;0.10;;
13477;SDS011;12598;62.382;17.344;2023-01-15T06:04:45;0.22;;;0.10;;
13477;SDS011;12598;62.382;17.344;2023-01-15T06:05:50;0.30;;;0.20;;
13477;SDS011;12598;62.382;17.344;2023-01-15T06:06:55;0.10;;;0.10;;
13477;SDS011;12598;62.382;17.344;2023-01-15T06:07:57;0.22;;;0.22;;
13477;SDS011;12598;62.382;17.344;2023-01-15T06:09:02;0.25;;;0.17;;
13477;SDS011;12598;62.382;17.344;2023-01-15T06:10:05;0.13;;;0.10;;
13477;SDS011;12598;62.382;17.344;2023-01-15T06:11:07;0.10;;;0.10;;
13477;SDS011;12598;62.382;17.344;2023-01-15T06:12:09;0.13;;;0.10;;
13477;SDS011;12598;62.382;17.344;2023-01-15T06:13:11;0.10;;;0.10;;
13477;SDS011;12598;62.382;17.344;2023-01-15T06:14:13;0.10;;;0.10;;
13477;SDS011;12598;62.382;17.344;2023-01-15T06:15:16;0.10;;;0.10;;
13477;SDS011;12598;62.382;17.344;2023-01-15T06:16:18;0.10;;;0.10;;
13477;SDS011;12598;62.382;17.344;2023-01-15T06:17:20;0.20;;;0.20;;
13477;SDS011;12598;62.382;17.344;2023-01-15T06:18:21;0.10;;;0.10;;
13477;SDS011;12598;62.382;17.344;2023-01-15T06:19:24;0.10;;;0.10;;
13477;SDS011;12598;62.382;17.344;2023-01-15T06:20:26;0.20;;;0.10;;
13477;SDS011;12598;62.382;17.344;2023-01-15T06:21:27;0.10;;;0.10;;
13477;SDS011;12598;62.382;17.344;2023-01-15T06:22:30;0.28;;;0.20;;
13477;SDS011;12598;62.382;17.344;2023-01-15T06:23:32;0.17;;;0.10;;
13477;SDS011;12598;62.382;17.344;2023-01-15T06:24:37;0.10;;;0.10;;
13477;SDS011;12598;62.382;17.344;2023-01-15T06:25:38;0.30;;;0.10;;
13477;SDS011;12598;62.382;17.344;2023-01-15T06:26:40;0.10;;;0.10;;
13477;SDS011;12598;62.382;17.344;2023-01-15T06:27:42;0.10;;;0.10;;
13477;SDS011;12598;62.382;17.344;2023-01-15T06:28:45;0.20;;;0.10;;
13477;SDS011;12598;62.382;17.344;2023-01-15T06:29:47;0.17;;;0.08;;
13477;SDS011;12598;62.382;17.344;2023-01-15T06:30:49;0.10;;;0.10;;
13477;SDS011;12598;62.382;17.344;2023-01-15T06:31:51;0.10;;;0.10;;
13477;SDS011;12598;62.382;17.344;2023-01-15T06:32:52;0.10;;;0.10;;
13477;SDS011;12598;62.382;17.344;2023-01-15T06:33:54;0.10;;;0.10;;
13477;SDS011;12598;62.382;17.344;2023-01-15T06:34:56;0.10;;;0.10;;
13477;SDS011;12598;62.382;17.344;2023-01-15T06:36:01;0.10;;;0.10;;
13477;SDS011;12598;62.382;17.344;2023-01-15T06:37:06;0.10;;;0.10;;
13477;SDS011;12598;62.382;17.344;2023-01-15T06:38:08;0.10;;;0.10;;
13477;SDS011;12598;62.382;17.344;2023-01-15T06:39:10;0.10;;;0.10;;
13477;SDS011;12598;62.382;17.344;2023-01-15T06:40:12;0.10;;;0.10;;
13477;SDS011;12598;62.382;17.344;2023-01-15T06:41:14;0.22;;;0.20;;
13477;SDS011;12598;62.382;17.344;2023-01-15T06:42:39;0.20;;;0.20;;
13477;SDS011;12598;62.382;17.344;2023-01-15T06:43:59;0.10;;;0.10;;
13477;SDS011;12598;62.382;17.344;2023-01-15T06:45:20;0.10;;;0.10;;
13477;SDS011;12598;62.382;17.344;2023-01-15T06:46:44;0.00;;;0.00;;
13477;SDS011;12598;62.382;17.344;2023-01-15T06:48:06;0.13;;;0.03;;
13477;SDS011;12598;62.382;17.344;2023-01-15T06:49:08;0.10;;;0.10;;
13477;SDS011;12598;62.382;17.344;2023-01-15T06:50:10;0.10;;;0.10;;
13477;SDS011;12598;62.382;17.344;2023-01-15T06:51:12;0.10;;;0.10;;
13477;SDS011;12598;62.382;17.344;2023-01-15T06:52:19;0.10;;;0.10;;
13477;SDS011;12598;62.382;17.344;2023-01-15T06:53:21;0.10;;;0.10;;